createdAt,value
2017-01-30T00:00:10.116Z,73500
2017-01-30T00:00:20.254Z,73497
2017-01-30T00:00:30.783Z,73495
2017-01-30T00:00:41.298Z,73499
2017-01-30T00:00:51.829Z,73499
2017-01-30T00:01:02.333Z,73503
2017-01-30T00:01:12.501Z,73504
2017-01-30T00:01:23.044Z,73501
2017-01-30T00:01:33.564Z,73505
2017-01-30T00:01:44.098Z,73503
2017-01-30T00:01:54.270Z,73499
2017-01-30T00:02:04.789Z,73503
2017-01-30T00:02:14.204Z,73502
2017-01-30T00:02:24.742Z,73505
2017-01-30T00:02:35.256Z,73506
2017-01-30T00:02:45.397Z,73498
2017-01-30T00:02:55.949Z,73497
2017-01-30T00:03:06.491Z,73498
2017-01-30T00:03:17.006Z,73493
2017-01-30T00:03:27.539Z,73497
2017-01-30T00:03:38.075Z,73490
2017-01-30T00:03:48.577Z,73491
2017-01-30T00:03:59.114Z,73494
2017-01-30T00:04:09.651Z,73492
2017-01-30T00:04:20.160Z,73493
2017-01-30T00:04:30.686Z,73492
2017-01-30T00:04:41.217Z,73496
2017-01-30T00:04:51.735Z,73496
2017-01-30T00:05:02.278Z,73497
2017-01-30T00:05:12.398Z,73497
2017-01-30T00:05:22.530Z,73497
2017-01-30T00:05:33.053Z,73503
2017-01-30T00:05:42.887Z,73500
2017-01-30T00:05:53.418Z,73497
2017-01-30T00:06:03.937Z,73500
2017-01-30T00:06:14.436Z,73506
2017-01-30T00:06:24.959Z,73500
2017-01-30T00:06:35.489Z,73505
2017-01-30T00:06:46.000Z,73501
2017-01-30T00:06:56.549Z,73502
2017-01-30T00:07:06.701Z,73503
2017-01-30T00:07:17.233Z,73499
2017-01-30T00:07:27.765Z,73501
2017-01-30T00:07:38.312Z,73501
2017-01-30T00:07:48.867Z,73501
2017-01-30T00:07:59.418Z,73499
2017-01-30T00:08:09.963Z,73502
2017-01-30T00:08:19.732Z,73502
2017-01-30T00:08:30.248Z,73500
2017-01-30T00:08:40.779Z,73502
2017-01-30T00:08:51.294Z,73502
2017-01-30T00:09:01.813Z,73504
2017-01-30T00:09:12.333Z,73500
2017-01-30T00:09:22.865Z,73496
2017-01-30T00:09:33.377Z,73503
2017-01-30T00:09:43.541Z,73503
2017-01-30T00:09:54.073Z,73502
2017-01-30T00:10:04.614Z,73497
2017-01-30T00:10:14.773Z,73494
2017-01-30T00:10:25.286Z,73493
2017-01-30T00:10:35.804Z,73493
2017-01-30T00:10:46.323Z,73494
2017-01-30T00:10:56.846Z,73496
2017-01-30T00:11:07.023Z,73499
2017-01-30T00:11:17.188Z,73500
2017-01-30T00:11:27.705Z,73499
2017-01-30T00:11:37.856Z,73497
2017-01-30T00:11:48.425Z,73500
2017-01-30T00:11:58.945Z,73496
2017-01-30T00:12:09.479Z,73505
2017-01-30T00:12:19.999Z,73502
2017-01-30T00:12:30.543Z,73498
2017-01-30T00:12:41.073Z,73502
2017-01-30T00:12:51.582Z,73504
2017-01-30T00:13:02.105Z,73498
2017-01-30T00:13:12.268Z,73501
2017-01-30T00:13:22.795Z,73504
2017-01-30T00:13:33.317Z,73500
2017-01-30T00:13:43.853Z,73503
2017-01-30T00:13:54.380Z,73501
2017-01-30T00:14:04.896Z,73501
2017-01-30T00:14:15.060Z,73495
2017-01-30T00:14:25.599Z,73498
2017-01-30T00:14:36.123Z,73499
2017-01-30T00:14:46.636Z,73497
2017-01-30T00:14:56.797Z,73498
2017-01-30T00:15:07.342Z,73499
2017-01-30T00:15:17.481Z,73502
2017-01-30T00:15:27.995Z,73499
2017-01-30T00:15:38.518Z,73503
2017-01-30T00:15:49.059Z,73503
2017-01-30T00:15:59.601Z,73506
2017-01-30T00:16:10.117Z,73498
2017-01-30T00:16:20.274Z,73506
2017-01-30T00:16:30.804Z,73503
2017-01-30T00:16:40.955Z,73504
2017-01-30T00:16:51.485Z,73502
2017-01-30T00:17:02.020Z,73497
2017-01-30T00:17:12.186Z,73494
2017-01-30T00:17:22.350Z,73506
2017-01-30T00:17:32.906Z,73505
2017-01-30T00:17:43.037Z,73499
2017-01-30T00:17:53.586Z,73510
2017-01-30T00:18:04.104Z,73511
2017-01-30T00:18:14.272Z,73513
2017-01-30T00:18:24.791Z,73515
2017-01-30T00:18:34.944Z,73509
2017-01-30T00:18:45.457Z,73511
2017-01-30T00:18:55.987Z,73510
2017-01-30T00:19:06.510Z,73508
2017-01-30T00:19:16.677Z,73510
2017-01-30T00:19:27.220Z,73509
2017-01-30T00:19:37.725Z,73505
2017-01-30T00:19:48.254Z,73506
2017-01-30T00:19:58.781Z,73505
2017-01-30T00:20:09.331Z,73500
2017-01-30T00:20:19.873Z,73500
2017-01-30T00:20:30.053Z,73504
2017-01-30T00:20:40.566Z,73501
2017-01-30T00:20:51.089Z,73501
2017-01-30T00:21:01.244Z,73503
2017-01-30T00:21:11.750Z,73497
2017-01-30T00:21:22.276Z,73502
2017-01-30T00:21:32.811Z,73500
2017-01-30T00:21:43.361Z,73498
2017-01-30T00:21:53.896Z,73499
2017-01-30T00:22:04.441Z,73503
2017-01-30T00:22:14.607Z,73504
2017-01-30T00:22:25.140Z,73498
2017-01-30T00:22:35.286Z,73498
2017-01-30T00:22:45.420Z,73503
2017-01-30T00:22:55.968Z,73499
2017-01-30T00:23:06.501Z,73494
2017-01-30T00:23:17.022Z,73495
2017-01-30T00:23:27.552Z,73491
2017-01-30T00:23:37.705Z,73494
2017-01-30T00:23:47.859Z,73494
2017-01-30T00:23:58.401Z,73491
2017-01-30T00:24:08.563Z,73494
2017-01-30T00:24:18.707Z,73502
2017-01-30T00:24:29.227Z,73504
2017-01-30T00:24:39.406Z,73509
2017-01-30T00:24:49.179Z,73517
2017-01-30T00:24:59.705Z,73517
2017-01-30T00:25:10.241Z,73509
2017-01-30T00:25:20.416Z,73511
2017-01-30T00:25:30.929Z,73503
2017-01-30T00:25:40.722Z,73500
2017-01-30T00:25:51.240Z,73498
2017-01-30T00:26:01.779Z,73489
2017-01-30T00:26:11.567Z,73492
2017-01-30T00:26:21.712Z,73501
2017-01-30T00:26:32.218Z,73498
2017-01-30T00:26:42.735Z,73501
2017-01-30T00:26:53.243Z,73503
2017-01-30T00:27:03.753Z,73500
2017-01-30T00:27:14.270Z,73498
2017-01-30T00:27:24.816Z,73508
2017-01-30T00:27:34.986Z,73503
2017-01-30T00:27:45.516Z,73504
2017-01-30T00:27:56.023Z,73502
2017-01-30T00:28:06.552Z,73497
2017-01-30T00:28:17.086Z,73500
2017-01-30T00:28:27.637Z,73497
2017-01-30T00:28:38.155Z,73492
2017-01-30T00:28:48.320Z,73482
2017-01-30T00:28:58.836Z,73492
2017-01-30T00:29:09.338Z,73500
2017-01-30T00:29:19.855Z,73507
2017-01-30T00:29:30.383Z,73506
2017-01-30T00:29:40.918Z,73495
2017-01-30T00:29:51.436Z,73496
2017-01-30T00:30:01.587Z,73497
2017-01-30T00:30:12.111Z,73495
2017-01-30T00:30:22.638Z,73497
2017-01-30T00:30:33.156Z,73500
2017-01-30T00:30:43.304Z,73495
2017-01-30T00:30:53.807Z,73500
2017-01-30T00:31:04.322Z,73496
2017-01-30T00:31:14.473Z,73494
2017-01-30T00:31:24.993Z,73490
2017-01-30T00:31:35.525Z,73483
2017-01-30T00:31:45.662Z,73487
2017-01-30T00:31:56.190Z,73486
2017-01-30T00:32:06.340Z,73482
2017-01-30T00:32:16.851Z,73482
2017-01-30T00:32:27.389Z,73502
2017-01-30T00:32:37.927Z,73501
2017-01-30T00:32:48.461Z,73503
2017-01-30T00:32:58.976Z,73501
2017-01-30T00:33:09.487Z,73498
2017-01-30T00:33:19.665Z,73493
2017-01-30T00:33:29.813Z,73490
2017-01-30T00:33:40.328Z,73481
2017-01-30T00:33:50.831Z,73475
2017-01-30T00:34:01.351Z,73476
2017-01-30T00:34:11.903Z,73477
2017-01-30T00:34:22.443Z,73480
2017-01-30T00:34:32.971Z,73487
2017-01-30T00:34:43.480Z,73483
2017-01-30T00:34:53.988Z,73492
2017-01-30T00:35:04.511Z,73497
2017-01-30T00:35:15.018Z,73497
2017-01-30T00:35:25.559Z,73494
2017-01-30T00:35:35.361Z,73488
2017-01-30T00:35:45.879Z,73494
2017-01-30T00:35:56.402Z,73490
2017-01-30T00:36:06.924Z,73493
2017-01-30T00:36:17.472Z,73493
2017-01-30T00:36:28.011Z,73491
2017-01-30T00:36:38.164Z,73488
2017-01-30T00:36:48.334Z,73493
2017-01-30T00:36:58.854Z,73493
2017-01-30T00:37:09.015Z,73488
2017-01-30T00:37:19.562Z,73496
2017-01-30T00:37:30.105Z,73485
2017-01-30T00:37:40.638Z,73481
2017-01-30T00:37:51.167Z,73485
2017-01-30T00:38:01.705Z,73488
2017-01-30T00:38:12.259Z,73486
2017-01-30T00:38:22.776Z,73484
2017-01-30T00:38:33.306Z,73489
2017-01-30T00:38:43.818Z,73492
2017-01-30T00:38:54.352Z,73488
2017-01-30T00:39:04.874Z,73493
2017-01-30T00:39:15.034Z,73493
2017-01-30T00:39:25.575Z,73492
2017-01-30T00:39:36.109Z,73489
2017-01-30T00:39:45.893Z,73487
2017-01-30T00:39:56.422Z,73488
2017-01-30T00:40:06.943Z,73481
2017-01-30T00:40:17.478Z,73483
2017-01-30T00:40:28.002Z,73479
2017-01-30T00:40:38.173Z,73484
2017-01-30T00:40:48.701Z,73477
2017-01-30T00:40:59.252Z,73476
2017-01-30T00:41:09.404Z,73480
2017-01-30T00:41:19.946Z,73471
2017-01-30T00:41:30.485Z,73474
2017-01-30T00:41:41.005Z,73476
2017-01-30T00:41:51.546Z,73475
2017-01-30T00:42:02.050Z,73475
2017-01-30T00:42:12.567Z,73476
2017-01-30T00:42:22.719Z,73476
2017-01-30T00:42:33.263Z,73476
2017-01-30T00:42:43.804Z,73497
2017-01-30T00:42:54.349Z,73502
2017-01-30T00:43:04.503Z,73487
2017-01-30T00:43:14.653Z,73475
2017-01-30T00:43:25.171Z,73486
2017-01-30T00:43:35.309Z,73489
2017-01-30T00:43:45.833Z,73494
2017-01-30T00:43:56.384Z,73493
2017-01-30T00:44:06.900Z,73494
2017-01-30T00:44:17.062Z,73493
2017-01-30T00:44:27.579Z,73488
2017-01-30T00:44:38.099Z,73485
2017-01-30T00:44:48.635Z,73485
2017-01-30T00:44:59.168Z,73483
2017-01-30T00:45:09.724Z,73490
2017-01-30T00:45:20.280Z,73490
2017-01-30T00:45:30.807Z,73484
2017-01-30T00:45:41.335Z,73486
2017-01-30T00:45:51.876Z,73488
2017-01-30T00:46:02.448Z,73483
2017-01-30T00:46:12.981Z,73480
2017-01-30T00:46:23.126Z,73481
2017-01-30T00:46:33.672Z,73477
2017-01-30T00:46:44.218Z,73479
2017-01-30T00:46:54.764Z,73483
2017-01-30T00:47:05.294Z,73483
2017-01-30T00:47:15.816Z,73475
2017-01-30T00:47:26.373Z,73473
2017-01-30T00:47:36.908Z,73474
2017-01-30T00:47:47.423Z,73476
2017-01-30T00:47:57.208Z,73485
2017-01-30T00:48:07.361Z,73492
2017-01-30T00:48:17.559Z,73488
2017-01-30T00:48:28.094Z,73487
2017-01-30T00:48:38.241Z,73480
2017-01-30T00:48:48.765Z,73481
2017-01-30T00:48:59.316Z,73482
2017-01-30T00:49:09.463Z,73476
2017-01-30T00:49:19.607Z,73477
2017-01-30T00:49:30.129Z,73479
2017-01-30T00:49:40.663Z,73496
2017-01-30T00:49:51.198Z,73492
2017-01-30T00:50:01.727Z,73483
2017-01-30T00:50:12.283Z,73470
2017-01-30T00:50:22.791Z,73475
2017-01-30T00:50:33.321Z,73483
2017-01-30T00:50:43.861Z,73485
2017-01-30T00:50:54.395Z,73486
2017-01-30T00:51:04.574Z,73479
2017-01-30T00:51:15.102Z,73479
2017-01-30T00:51:25.262Z,73476
2017-01-30T00:51:35.809Z,73477
2017-01-30T00:51:46.345Z,73492
2017-01-30T00:51:56.882Z,73482
2017-01-30T00:52:07.069Z,73485
2017-01-30T00:52:17.593Z,73483
2017-01-30T00:52:28.136Z,73476
2017-01-30T00:52:38.660Z,73470
2017-01-30T00:52:48.798Z,73474
2017-01-30T00:52:59.332Z,73474
2017-01-30T00:53:09.481Z,73469
2017-01-30T00:53:19.651Z,73472
2017-01-30T00:53:30.191Z,73478
2017-01-30T00:53:40.735Z,73480
2017-01-30T00:53:51.258Z,73477
2017-01-30T00:54:01.798Z,73476
2017-01-30T00:54:12.327Z,73480
2017-01-30T00:54:22.857Z,73479
2017-01-30T00:54:33.365Z,73475
2017-01-30T00:54:43.899Z,73481
2017-01-30T00:54:54.428Z,73481
2017-01-30T00:55:04.963Z,73488
2017-01-30T00:55:15.475Z,73483
2017-01-30T00:55:26.041Z,73481
2017-01-30T00:55:36.189Z,73476
2017-01-30T00:55:46.709Z,73473
2017-01-30T00:55:57.226Z,73473
2017-01-30T00:56:07.735Z,73477
2017-01-30T00:56:18.269Z,73478
2017-01-30T00:56:28.794Z,73481
2017-01-30T00:56:38.947Z,73476
2017-01-30T00:56:49.102Z,73476
2017-01-30T00:56:59.637Z,73470
2017-01-30T00:57:09.784Z,73469
2017-01-30T00:57:19.935Z,73468
2017-01-30T00:57:30.442Z,73470
2017-01-30T00:57:40.636Z,73464
2017-01-30T00:57:51.165Z,73472
2017-01-30T00:58:01.677Z,73478
2017-01-30T00:58:12.181Z,73472
2017-01-30T00:58:22.357Z,73478
2017-01-30T00:58:32.902Z,73480
2017-01-30T00:58:43.437Z,73486
2017-01-30T00:58:53.969Z,73485
2017-01-30T00:59:04.495Z,73484
2017-01-30T00:59:14.656Z,73487
2017-01-30T00:59:25.185Z,73485
2017-01-30T00:59:35.711Z,73483
2017-01-30T00:59:46.247Z,73476
2017-01-30T00:59:56.807Z,73481
2017-01-30T01:00:07.323Z,73479
2017-01-30T01:00:17.109Z,73478
2017-01-30T01:00:27.278Z,73478
2017-01-30T01:00:37.812Z,73473
2017-01-30T01:00:48.330Z,73478
2017-01-30T01:00:58.864Z,73480
2017-01-30T01:01:09.405Z,73469
2017-01-30T01:01:19.936Z,73460
2017-01-30T01:01:30.442Z,73465
2017-01-30T01:01:40.965Z,73468
2017-01-30T01:01:51.117Z,73470
2017-01-30T01:02:01.623Z,73478
2017-01-30T01:02:11.772Z,73483
2017-01-30T01:02:22.298Z,73477
2017-01-30T01:02:32.844Z,73477
2017-01-30T01:02:43.398Z,73474
2017-01-30T01:02:53.923Z,73474
2017-01-30T01:03:04.456Z,73475
2017-01-30T01:03:14.618Z,73470
2017-01-30T01:03:25.140Z,73470
2017-01-30T01:03:35.679Z,73471
2017-01-30T01:03:45.848Z,73471
2017-01-30T01:03:56.361Z,73472
2017-01-30T01:04:06.876Z,73472
2017-01-30T01:04:17.034Z,73470
2017-01-30T01:04:27.574Z,73477
2017-01-30T01:04:38.112Z,73475
2017-01-30T01:04:48.654Z,73473
2017-01-30T01:04:59.185Z,73473
2017-01-30T01:05:09.698Z,73461
2017-01-30T01:05:19.852Z,73474
2017-01-30T01:05:30.373Z,73470
2017-01-30T01:05:40.916Z,73474
2017-01-30T01:05:51.439Z,73474
2017-01-30T01:06:01.974Z,73476
2017-01-30T01:06:12.153Z,73476
2017-01-30T01:06:22.294Z,73473
2017-01-30T01:06:32.818Z,73470
2017-01-30T01:06:42.985Z,73474
2017-01-30T01:06:53.538Z,73472
2017-01-30T01:07:04.060Z,73474
2017-01-30T01:07:14.215Z,73470
2017-01-30T01:07:24.735Z,73478
2017-01-30T01:07:35.253Z,73480
2017-01-30T01:07:45.415Z,73478
2017-01-30T01:07:55.930Z,73479
2017-01-30T01:08:06.440Z,73481
2017-01-30T01:08:16.589Z,73484
2017-01-30T01:08:27.150Z,73477
2017-01-30T01:08:37.679Z,73477
2017-01-30T01:08:48.222Z,73476
2017-01-30T01:08:58.361Z,73474
2017-01-30T01:09:08.523Z,73475
2017-01-30T01:09:19.046Z,73473
2017-01-30T01:09:29.574Z,73470
2017-01-30T01:09:40.114Z,73471
2017-01-30T01:09:50.658Z,73466
2017-01-30T01:10:01.185Z,73474
2017-01-30T01:10:10.964Z,73476
2017-01-30T01:10:21.474Z,73471
2017-01-30T01:10:32.010Z,73478
2017-01-30T01:10:42.531Z,73494
2017-01-30T01:10:52.683Z,73487
2017-01-30T01:11:02.840Z,73484
2017-01-30T01:11:13.360Z,73483
2017-01-30T01:11:23.511Z,73483
2017-01-30T01:11:34.057Z,73480
2017-01-30T01:11:44.599Z,73477
2017-01-30T01:11:55.129Z,73476
2017-01-30T01:12:05.675Z,73474
2017-01-30T01:12:16.197Z,73475
2017-01-30T01:12:26.737Z,73479
2017-01-30T01:12:37.255Z,73478
2017-01-30T01:12:47.801Z,73476
2017-01-30T01:12:58.334Z,73480
2017-01-30T01:13:08.491Z,73481
2017-01-30T01:13:19.022Z,73480
2017-01-30T01:13:29.548Z,73482
2017-01-30T01:13:40.092Z,73478
2017-01-30T01:13:50.620Z,73476
2017-01-30T01:14:01.151Z,73480
2017-01-30T01:14:11.322Z,73474
2017-01-30T01:14:21.847Z,73472
2017-01-30T01:14:32.390Z,73484
2017-01-30T01:14:42.934Z,73482
2017-01-30T01:14:53.444Z,73482
2017-01-30T01:15:03.595Z,73476
2017-01-30T01:15:13.747Z,73476
2017-01-30T01:15:24.255Z,73478
2017-01-30T01:15:34.792Z,73479
2017-01-30T01:15:44.962Z,73476
2017-01-30T01:15:55.534Z,73474
2017-01-30T01:16:06.054Z,73477
2017-01-30T01:16:16.562Z,73478
2017-01-30T01:16:27.080Z,73474
2017-01-30T01:16:37.611Z,73474
2017-01-30T01:16:48.136Z,73469
2017-01-30T01:16:58.644Z,73474
2017-01-30T01:17:08.801Z,73475
2017-01-30T01:17:18.962Z,73471
2017-01-30T01:17:29.501Z,73473
2017-01-30T01:17:40.018Z,73473
2017-01-30T01:17:50.181Z,73471
2017-01-30T01:18:00.686Z,73470
2017-01-30T01:18:10.855Z,73467
2017-01-30T01:18:21.002Z,73474
2017-01-30T01:18:31.583Z,73475
2017-01-30T01:18:42.106Z,73470
2017-01-30T01:18:52.250Z,73468
2017-01-30T01:19:02.787Z,73470
2017-01-30T01:19:12.570Z,73477
2017-01-30T01:19:23.076Z,73473
2017-01-30T01:19:33.588Z,73474
2017-01-30T01:19:43.375Z,73477
2017-01-30T01:19:53.888Z,73475
2017-01-30T01:20:04.420Z,73472
2017-01-30T01:20:14.954Z,73472
2017-01-30T01:20:25.471Z,73475
2017-01-30T01:20:35.995Z,73470
2017-01-30T01:20:46.517Z,73471
2017-01-30T01:20:57.058Z,73477
2017-01-30T01:21:07.606Z,73471
2017-01-30T01:21:17.745Z,73468
2017-01-30T01:21:28.276Z,73472
2017-01-30T01:21:38.801Z,73476
2017-01-30T01:21:49.307Z,73473
2017-01-30T01:21:59.803Z,73474
2017-01-30T01:22:09.970Z,73473
2017-01-30T01:22:20.147Z,73478
2017-01-30T01:22:30.659Z,73474
2017-01-30T01:22:41.169Z,73472
2017-01-30T01:22:51.708Z,73473
2017-01-30T01:23:02.244Z,73476
2017-01-30T01:23:12.390Z,73476
2017-01-30T01:23:22.551Z,73480
2017-01-30T01:23:33.090Z,73479
2017-01-30T01:23:43.625Z,73473
2017-01-30T01:23:54.146Z,73477
2017-01-30T01:24:04.315Z,73478
2017-01-30T01:24:14.494Z,73469
2017-01-30T01:24:25.019Z,73471
2017-01-30T01:24:35.529Z,73470
2017-01-30T01:24:45.348Z,73477
2017-01-30T01:24:55.863Z,73475
2017-01-30T01:25:06.378Z,73479
2017-01-30T01:25:16.912Z,73479
2017-01-30T01:25:27.443Z,73475
2017-01-30T01:25:37.956Z,73472
2017-01-30T01:25:48.125Z,73472
2017-01-30T01:25:58.635Z,73471
2017-01-30T01:26:09.174Z,73465
2017-01-30T01:26:19.689Z,73465
2017-01-30T01:26:30.220Z,73470
2017-01-30T01:26:40.752Z,73471
2017-01-30T01:26:50.536Z,73472
2017-01-30T01:27:01.064Z,73471
2017-01-30T01:27:11.585Z,73473
2017-01-30T01:27:22.126Z,73472
2017-01-30T01:27:32.667Z,73472
2017-01-30T01:27:43.189Z,73469
2017-01-30T01:27:53.702Z,73470
2017-01-30T01:28:04.247Z,73470
2017-01-30T01:28:14.388Z,73472
2017-01-30T01:28:24.900Z,73472
2017-01-30T01:28:35.437Z,73471
2017-01-30T01:28:45.956Z,73469
2017-01-30T01:28:56.507Z,73468
2017-01-30T01:29:07.056Z,73474
2017-01-30T01:29:17.575Z,73474
2017-01-30T01:29:28.121Z,73474
2017-01-30T01:29:38.644Z,73470
2017-01-30T01:29:49.211Z,73475
2017-01-30T01:29:59.772Z,73474
2017-01-30T01:30:09.964Z,73467
2017-01-30T01:30:20.490Z,73461
2017-01-30T01:30:31.048Z,73466
2017-01-30T01:30:41.588Z,73470
2017-01-30T01:30:51.738Z,73472
2017-01-30T01:31:01.894Z,73470
2017-01-30T01:31:12.436Z,73470
2017-01-30T01:31:22.982Z,73469
2017-01-30T01:31:33.494Z,73469
2017-01-30T01:31:44.045Z,73471
2017-01-30T01:31:54.563Z,73467
2017-01-30T01:32:04.703Z,73475
2017-01-30T01:32:15.227Z,73475
2017-01-30T01:32:25.754Z,73471
2017-01-30T01:32:36.273Z,73461
2017-01-30T01:32:46.813Z,73461
2017-01-30T01:32:57.334Z,73463
2017-01-30T01:33:07.855Z,73463
2017-01-30T01:33:18.400Z,73465
2017-01-30T01:33:28.926Z,73467
2017-01-30T01:33:39.459Z,73461
2017-01-30T01:33:49.975Z,73463
2017-01-30T01:34:00.496Z,73463
2017-01-30T01:34:11.036Z,73463
2017-01-30T01:34:21.544Z,73457
2017-01-30T01:34:32.072Z,73462
2017-01-30T01:34:42.575Z,73471
2017-01-30T01:34:53.090Z,73473
2017-01-30T01:35:03.269Z,73465
2017-01-30T01:35:13.793Z,73466
2017-01-30T01:35:24.314Z,73469
2017-01-30T01:35:34.862Z,73465
2017-01-30T01:35:45.005Z,73461
2017-01-30T01:35:55.536Z,73462
2017-01-30T01:36:06.048Z,73471
2017-01-30T01:36:15.849Z,73465
2017-01-30T01:36:26.402Z,73461
2017-01-30T01:36:36.931Z,73458
2017-01-30T01:36:47.443Z,73462
2017-01-30T01:36:57.957Z,73467
2017-01-30T01:37:08.479Z,73465
2017-01-30T01:37:19.048Z,73467
2017-01-30T01:37:29.563Z,73466
2017-01-30T01:37:40.142Z,73466
2017-01-30T01:37:50.669Z,73467
2017-01-30T01:38:01.222Z,73470
2017-01-30T01:38:11.731Z,73467
2017-01-30T01:38:22.268Z,73465
2017-01-30T01:38:32.799Z,73460
2017-01-30T01:38:43.323Z,73469
2017-01-30T01:38:53.850Z,73461
2017-01-30T01:39:04.372Z,73464
2017-01-30T01:39:14.904Z,73464
2017-01-30T01:39:25.048Z,73460
2017-01-30T01:39:35.584Z,73460
2017-01-30T01:39:46.116Z,73460
2017-01-30T01:39:56.660Z,73462
2017-01-30T01:40:07.183Z,73456
2017-01-30T01:40:17.342Z,73457
2017-01-30T01:40:27.877Z,73463
2017-01-30T01:40:38.410Z,73461
2017-01-30T01:40:48.592Z,73467
2017-01-30T01:40:59.131Z,73461
2017-01-30T01:41:09.289Z,73461
2017-01-30T01:41:19.812Z,73463
2017-01-30T01:41:29.985Z,73464
2017-01-30T01:41:40.526Z,73465
2017-01-30T01:41:51.043Z,73459
2017-01-30T01:42:01.584Z,73457
2017-01-30T01:42:11.719Z,73465
2017-01-30T01:42:21.882Z,73465
2017-01-30T01:42:32.388Z,73466
2017-01-30T01:42:42.926Z,73462
2017-01-30T01:42:53.459Z,73457
2017-01-30T01:43:03.992Z,73457
2017-01-30T01:43:14.515Z,73454
2017-01-30T01:43:25.026Z,73459
2017-01-30T01:43:35.562Z,73465
2017-01-30T01:43:45.738Z,73468
2017-01-30T01:43:56.267Z,73464
2017-01-30T01:44:06.800Z,73460
2017-01-30T01:44:16.937Z,73456
2017-01-30T01:44:27.458Z,73462
2017-01-30T01:44:37.988Z,73461
2017-01-30T01:44:48.538Z,73457
2017-01-30T01:44:59.041Z,73459
2017-01-30T01:45:09.556Z,73461
2017-01-30T01:45:19.703Z,73462
2017-01-30T01:45:30.212Z,73458
2017-01-30T01:45:40.759Z,73455
2017-01-30T01:45:51.299Z,73458
2017-01-30T01:46:01.830Z,73458
2017-01-30T01:46:12.339Z,73461
2017-01-30T01:46:22.485Z,73459
2017-01-30T01:46:33.015Z,73455
2017-01-30T01:46:43.530Z,73461
2017-01-30T01:46:54.072Z,73459
2017-01-30T01:47:04.587Z,73459
2017-01-30T01:47:14.734Z,73464
2017-01-30T01:47:25.253Z,73463
2017-01-30T01:47:35.787Z,73469
2017-01-30T01:47:45.947Z,73465
2017-01-30T01:47:56.478Z,73459
2017-01-30T01:48:06.997Z,73468
2017-01-30T01:48:16.800Z,73466
2017-01-30T01:48:27.332Z,73460
2017-01-30T01:48:37.846Z,73464
2017-01-30T01:48:47.615Z,73466
2017-01-30T01:48:58.147Z,73468
2017-01-30T01:49:08.310Z,73463
2017-01-30T01:49:18.851Z,73457
2017-01-30T01:49:29.386Z,73458
2017-01-30T01:49:39.911Z,73461
2017-01-30T01:49:50.447Z,73461
2017-01-30T01:50:00.955Z,73463
2017-01-30T01:50:10.753Z,73457
2017-01-30T01:50:20.901Z,73463
2017-01-30T01:50:31.442Z,73461
2017-01-30T01:50:41.955Z,73462
2017-01-30T01:50:52.494Z,73464
2017-01-30T01:51:03.040Z,73460
2017-01-30T01:51:13.549Z,73460
2017-01-30T01:51:24.082Z,73459
2017-01-30T01:51:34.620Z,73461
2017-01-30T01:51:45.156Z,73460
2017-01-30T01:51:55.693Z,73460
2017-01-30T01:52:06.238Z,73461
2017-01-30T01:52:16.400Z,73463
2017-01-30T01:52:26.912Z,73465
2017-01-30T01:52:37.431Z,73460
2017-01-30T01:52:47.952Z,73462
2017-01-30T01:52:58.485Z,73461
2017-01-30T01:53:09.001Z,73457
2017-01-30T01:53:19.528Z,73460
2017-01-30T01:53:30.052Z,73464
2017-01-30T01:53:40.610Z,73461
2017-01-30T01:53:50.797Z,73458
2017-01-30T01:54:01.325Z,73458
2017-01-30T01:54:11.854Z,73456
2017-01-30T01:54:22.387Z,73462
2017-01-30T01:54:32.927Z,73459
2017-01-30T01:54:43.457Z,73459
2017-01-30T01:54:53.977Z,73465
2017-01-30T01:55:04.510Z,73459
2017-01-30T01:55:14.690Z,73458
2017-01-30T01:55:25.207Z,73463
2017-01-30T01:55:35.727Z,73459
2017-01-30T01:55:46.234Z,73458
2017-01-30T01:55:56.753Z,73456
2017-01-30T01:56:07.300Z,73457
2017-01-30T01:56:17.819Z,73460
2017-01-30T01:56:28.344Z,73458
2017-01-30T01:56:38.876Z,73456
2017-01-30T01:56:49.011Z,73460
2017-01-30T01:56:59.536Z,73463
2017-01-30T01:57:10.052Z,73464
2017-01-30T01:57:20.583Z,73463
2017-01-30T01:57:31.092Z,73467
2017-01-30T01:57:41.632Z,73466
2017-01-30T01:57:52.166Z,73467
2017-01-30T01:58:02.694Z,73467
2017-01-30T01:58:12.855Z,73469
2017-01-30T01:58:23.373Z,73465
2017-01-30T01:58:33.878Z,73458
2017-01-30T01:58:44.402Z,73459
2017-01-30T01:58:54.569Z,73458
2017-01-30T01:59:04.735Z,73463
2017-01-30T01:59:15.287Z,73461
2017-01-30T01:59:25.818Z,73460
2017-01-30T01:59:36.347Z,73459
2017-01-30T01:59:46.872Z,73459
2017-01-30T01:59:57.395Z,73459
2017-01-30T02:00:07.928Z,73459
2017-01-30T02:00:18.085Z,73456
2017-01-30T02:00:28.242Z,73456
2017-01-30T02:00:38.779Z,73454
2017-01-30T02:00:49.324Z,73456
2017-01-30T02:00:59.887Z,73457
2017-01-30T02:01:10.031Z,73456
2017-01-30T02:01:20.548Z,73453
2017-01-30T02:01:31.105Z,73456
2017-01-30T02:01:41.650Z,73454
2017-01-30T02:01:52.192Z,73456
2017-01-30T02:02:02.793Z,73455
2017-01-30T02:02:12.966Z,73451
2017-01-30T02:02:23.502Z,73455
2017-01-30T02:02:34.007Z,73458
2017-01-30T02:02:44.503Z,73456
2017-01-30T02:02:54.284Z,73459
2017-01-30T02:03:04.824Z,73458
2017-01-30T02:03:15.364Z,73453
2017-01-30T02:03:25.888Z,73453
2017-01-30T02:03:36.436Z,73453
2017-01-30T02:03:46.982Z,73454
2017-01-30T02:03:57.537Z,73456
2017-01-30T02:04:07.341Z,73455
2017-01-30T02:04:17.128Z,73455
2017-01-30T02:04:27.285Z,73457
2017-01-30T02:04:37.804Z,73460
2017-01-30T02:04:48.321Z,73457
2017-01-30T02:04:58.896Z,73456
2017-01-30T02:05:09.429Z,73455
2017-01-30T02:05:19.969Z,73458
2017-01-30T02:05:30.487Z,73458
2017-01-30T02:05:41.013Z,73455
2017-01-30T02:05:51.556Z,73457
2017-01-30T02:06:02.078Z,73453
2017-01-30T02:06:12.240Z,73451
2017-01-30T02:06:22.762Z,73454
2017-01-30T02:06:33.274Z,73456
2017-01-30T02:06:43.835Z,73450
2017-01-30T02:06:54.423Z,73451
2017-01-30T02:07:04.951Z,73455
2017-01-30T02:07:15.115Z,73459
2017-01-30T02:07:25.636Z,73452
2017-01-30T02:07:36.160Z,73458
2017-01-30T02:07:46.674Z,73452
2017-01-30T02:07:57.209Z,73453
2017-01-30T02:08:07.737Z,73454
2017-01-30T02:08:17.889Z,73454
2017-01-30T02:08:28.415Z,73449
2017-01-30T02:08:38.951Z,73447
2017-01-30T02:08:49.483Z,73449
2017-01-30T02:09:00.005Z,73446
2017-01-30T02:09:10.157Z,73448
2017-01-30T02:09:20.676Z,73450
2017-01-30T02:09:31.178Z,73454
2017-01-30T02:09:41.328Z,73450
2017-01-30T02:09:51.844Z,73454
2017-01-30T02:10:02.371Z,73451
2017-01-30T02:10:12.541Z,73451
2017-01-30T02:10:23.083Z,73449
2017-01-30T02:10:33.218Z,73451
2017-01-30T02:10:43.753Z,73453
2017-01-30T02:10:53.894Z,73447
2017-01-30T02:11:04.430Z,73453
2017-01-30T02:11:14.978Z,73454
2017-01-30T02:11:25.500Z,73450
2017-01-30T02:11:36.023Z,73450
2017-01-30T02:11:46.542Z,73447
2017-01-30T02:11:57.063Z,73446
2017-01-30T02:12:07.566Z,73446
2017-01-30T02:12:17.728Z,73444
2017-01-30T02:12:28.250Z,73453
2017-01-30T02:12:38.782Z,73451
2017-01-30T02:12:48.940Z,73446
2017-01-30T02:12:59.466Z,73444
2017-01-30T02:13:10.001Z,73450
2017-01-30T02:13:20.527Z,73443
2017-01-30T02:13:31.056Z,73447
2017-01-30T02:13:41.228Z,73445
2017-01-30T02:13:51.745Z,73442
2017-01-30T02:14:02.270Z,73447
2017-01-30T02:14:12.812Z,73443
2017-01-30T02:14:23.338Z,73445